createdAt,value
2019-01-03T09:08:34.758Z,1041.02
2019-01-03T09:10:35.033Z,1041.04
2019-01-03T09:12:34.792Z,1041.07
2019-01-03T09:14:34.817Z,1041.06
2019-01-03T09:16:34.918Z,1041.03
2019-01-03T09:18:34.841Z,1041.09
2019-01-03T09:20:34.901Z,1041.09
2019-01-03T09:22:34.943Z,1041.10
2019-01-03T09:24:34.925Z,1041.00
2019-01-03T09:26:34.877Z,1041.01
2019-01-03T09:28:34.961Z,1040.95
2019-01-03T09:30:39.903Z,1040.97
2019-01-03T09:32:34.850Z,1041.02
2019-01-03T09:34:34.844Z,1041.01
2019-01-03T09:36:34.725Z,1041.06
2019-01-03T09:38:35.075Z,1041.10
2019-01-03T09:40:34.886Z,1041.07
2019-01-03T09:42:36.013Z,1041.10
2019-01-03T09:48:34.817Z,1041.12
2019-01-03T09:50:39.778Z,1041.10
2019-01-03T09:54:34.854Z,1041.01
2019-01-03T09:56:34.935Z,1041.08
2019-01-03T10:00:34.786Z,1041.04
2019-01-03T10:02:34.974Z,1041.08
2019-01-03T10:06:34.871Z,1041.05
2019-01-03T10:08:35.013Z,1040.99
2019-01-03T10:12:34.900Z,1040.99
2019-01-03T10:14:37.670Z,1041.06
2019-01-03T10:18:34.931Z,1040.98
2019-01-03T10:20:34.950Z,1040.99
2019-01-03T10:24:34.787Z,1040.98
2019-01-03T10:26:34.990Z,1040.90
2019-01-03T10:30:34.956Z,1040.91
2019-01-03T10:32:34.876Z,1040.87
2019-01-03T10:36:34.754Z,1040.76
2019-01-03T10:38:34.761Z,1040.77
2019-01-03T10:42:39.905Z,1040.78
2019-01-03T10:44:34.805Z,1040.79
2019-01-03T10:48:37.750Z,1040.76
2019-01-03T10:50:37.464Z,1040.75
2019-01-03T10:54:34.821Z,1040.78
2019-01-03T10:56:34.782Z,1040.77
2019-01-03T11:00:34.806Z,1040.72
2019-01-03T11:02:34.782Z,1040.67
2019-01-03T11:06:34.762Z,1040.72
2019-01-03T11:08:39.835Z,1040.75
2019-01-03T11:12:39.143Z,1040.70
2019-01-03T11:14:40.022Z,1040.64
2019-01-03T11:18:34.821Z,1040.66
2019-01-03T11:20:34.810Z,1040.63
2019-01-03T11:24:34.855Z,1040.62
2019-01-03T11:26:34.791Z,1040.61
2019-01-03T11:30:40.006Z,1040.56
2019-01-03T11:32:35.775Z,1040.58
2019-01-03T11:36:34.780Z,1040.48
2019-01-03T11:38:34.804Z,1040.48
2019-01-03T11:42:34.804Z,1040.49
2019-01-03T11:44:35.003Z,1040.42
2019-01-03T11:48:39.998Z,1040.44
2019-01-03T11:50:34.839Z,1040.47
2019-01-03T11:54:34.784Z,1040.46
2019-01-03T11:56:34.846Z,1040.50
2019-01-03T12:00:34.799Z,1040.48
2019-01-03T12:02:34.822Z,1040.52
2019-01-03T12:06:35.756Z,1040.40
2019-01-03T12:08:34.817Z,1040.37
2019-01-03T12:12:34.838Z,1040.35
2019-01-03T12:14:34.878Z,1040.32
2019-01-03T12:18:34.824Z,1040.30
2019-01-03T12:20:34.814Z,1040.29
2019-01-03T12:23:48.101Z,1040.33
2019-01-03T12:25:49.120Z,1040.29
2019-01-03T12:27:48.093Z,1040.27
2019-01-03T12:29:48.104Z,1040.28
2019-01-03T12:31:48.075Z,1040.27
2019-01-03T12:33:48.096Z,1040.28
2019-01-03T12:35:48.189Z,1040.25
2019-01-03T12:37:48.110Z,1040.25
2019-01-03T12:39:48.126Z,1040.30
2019-01-03T12:41:48.207Z,1040.26
2019-01-03T12:43:48.135Z,1040.25
2019-01-03T12:45:53.342Z,1040.27
2019-01-03T12:47:48.170Z,1040.22
2019-01-03T12:49:48.152Z,1040.26
2019-01-03T12:51:48.185Z,1040.23
2019-01-03T12:53:48.215Z,1040.30
2019-01-03T12:55:48.158Z,1040.29
2019-01-03T12:57:48.126Z,1040.29
2019-01-03T12:59:48.188Z,1040.36
2019-01-03T13:01:48.123Z,1040.39
2019-01-03T13:03:49.887Z,1040.38
2019-01-03T13:05:48.282Z,1040.35
2019-01-03T13:07:48.120Z,1040.37
2019-01-03T13:09:48.143Z,1040.44
2019-01-03T13:11:48.242Z,1040.37
2019-01-03T13:13:48.129Z,1040.36
2019-01-03T13:15:48.160Z,1040.33
2019-01-03T13:17:48.170Z,1040.33
2019-01-03T13:19:48.131Z,1040.33
2019-01-03T13:21:48.145Z,1040.33
2019-01-03T13:23:48.190Z,1040.35
2019-01-03T13:25:48.142Z,1040.36
2019-01-03T13:27:48.362Z,1040.29
2019-01-03T13:29:48.199Z,1040.29
2019-01-03T13:31:48.165Z,1040.32
2019-01-03T13:33:48.187Z,1040.29
2019-01-03T13:35:48.164Z,1040.24
2019-01-03T13:37:52.594Z,1040.29
2019-01-03T13:40:05.243Z,1040.35
2019-01-03T13:41:48.226Z,1040.35
2019-01-03T13:43:48.169Z,1040.24
2019-01-03T13:45:48.165Z,1040.23
2019-01-03T13:47:48.220Z,1040.22
2019-01-03T13:49:48.183Z,1040.19
2019-01-03T13:51:48.145Z,1040.20
2019-01-03T13:53:48.210Z,1040.27
2019-01-03T13:55:48.168Z,1040.33
2019-01-03T13:57:48.151Z,1040.28
2019-01-03T13:59:48.187Z,1040.27
2019-01-03T14:01:48.150Z,1040.24
2019-01-03T14:03:48.144Z,1040.25
2019-01-03T14:05:48.187Z,1040.28
2019-01-03T14:07:48.151Z,1040.24
2019-01-03T14:09:48.163Z,1040.22
2019-01-03T14:11:48.196Z,1040.32
2019-01-03T14:13:48.150Z,1040.39
2019-01-03T14:15:48.158Z,1040.40
2019-01-03T14:17:48.191Z,1040.34
2019-01-03T14:19:48.151Z,1040.38
2019-01-03T14:21:48.164Z,1040.38
2019-01-03T14:23:48.196Z,1040.39
2019-01-03T14:25:48.178Z,1040.44
2019-01-03T14:27:48.143Z,1040.45
2019-01-03T14:29:48.199Z,1040.52
2019-01-03T14:31:48.178Z,1040.47
2019-01-03T14:33:48.188Z,1040.51
2019-01-03T14:35:48.193Z,1040.56
2019-01-03T14:37:48.188Z,1040.54
2019-01-03T14:39:48.163Z,1040.58
2019-01-03T14:41:48.196Z,1040.60
2019-01-03T14:43:48.154Z,1040.60
2019-01-03T14:45:48.172Z,1040.59
2019-01-03T14:47:48.217Z,1040.64
2019-01-03T14:49:48.192Z,1040.71
2019-01-03T14:51:48.178Z,1040.66
2019-01-03T14:53:48.193Z,1040.60
2019-01-03T14:55:48.189Z,1040.61
2019-01-03T14:57:48.205Z,1040.64
2019-01-03T14:59:48.220Z,1040.62
2019-01-03T15:01:48.178Z,1040.63
2019-01-03T15:03:48.163Z,1040.72
2019-01-03T15:05:48.197Z,1040.73
2019-01-03T15:07:48.168Z,1040.76
2019-01-03T15:09:48.218Z,1040.78
2019-01-03T15:11:48.244Z,1040.79
2019-01-03T15:13:48.198Z,1040.81
2019-01-03T15:15:48.187Z,1040.87
2019-01-03T15:17:48.210Z,1040.87
2019-01-03T15:19:48.194Z,1040.91
2019-01-03T15:21:48.184Z,1040.84
2019-01-03T15:23:48.225Z,1040.89
2019-01-03T15:25:48.171Z,1040.91
2019-01-03T15:27:48.220Z,1040.93
2019-01-03T15:29:48.272Z,1040.99
2019-01-03T15:31:48.184Z,1040.95
2019-01-03T15:33:48.216Z,1040.98
2019-01-03T15:35:48.473Z,1040.98
2019-01-03T15:37:48.224Z,1041.03
2019-01-03T15:39:48.194Z,1041.04
2019-01-03T15:41:48.270Z,1041.05
2019-01-03T15:43:49.267Z,1041.07
2019-01-03T15:45:48.203Z,1041.09
2019-01-03T15:47:48.264Z,1041.12
2019-01-03T15:49:48.232Z,1041.19
2019-01-03T15:51:48.240Z,1041.21
2019-01-03T15:53:48.230Z,1041.16
2019-01-03T15:55:48.229Z,1041.22
2019-01-03T15:57:48.214Z,1041.22
2019-01-03T15:59:48.262Z,1041.17
2019-01-03T16:01:48.216Z,1041.22
2019-01-03T16:03:48.202Z,1041.20
2019-01-03T16:05:48.256Z,1041.12
2019-01-03T16:07:48.213Z,1041.11
2019-01-03T16:09:48.228Z,1041.09
2019-01-03T16:11:48.268Z,1040.97
2019-01-03T16:13:48.206Z,1040.93
2019-01-03T16:15:48.291Z,1040.99
2019-01-03T16:17:48.284Z,1040.98
2019-01-03T16:19:48.237Z,1041.00
2019-01-03T16:21:48.232Z,1041.03
2019-01-03T16:23:48.245Z,1041.11
2019-01-03T16:25:48.273Z,1041.15
2019-01-03T16:27:48.230Z,1041.17
2019-01-03T16:29:48.250Z,1041.17
2019-01-03T16:31:48.243Z,1041.11
2019-01-03T16:33:48.233Z,1041.12
2019-01-03T16:35:49.620Z,1041.17
2019-01-03T16:37:48.224Z,1041.22
2019-01-03T16:39:48.214Z,1041.27
2019-01-03T16:41:48.265Z,1041.22
2019-01-03T16:43:48.244Z,1041.30
2019-01-03T16:45:48.252Z,1041.29
2019-01-03T16:47:48.252Z,1041.35
2019-01-03T16:49:48.256Z,1041.43
2019-01-03T16:51:48.269Z,1041.31
2019-01-03T16:53:48.308Z,1041.25
2019-01-03T16:55:48.289Z,1041.21
2019-01-03T16:57:48.250Z,1041.18
2019-01-03T16:59:48.246Z,1041.13
2019-01-03T17:01:48.273Z,1041.20
2019-01-03T17:03:48.265Z,1041.18
2019-01-03T17:05:48.286Z,1041.11
2019-01-03T17:07:48.267Z,1041.20
2019-01-03T17:09:49.249Z,1041.19
2019-01-03T17:11:48.280Z,1041.21
2019-01-03T17:13:48.246Z,1041.16
2019-01-03T17:15:48.304Z,1041.14
2019-01-03T17:17:48.284Z,1041.07
2019-01-03T17:19:48.263Z,1041.07
2019-01-03T17:21:48.295Z,1041.04
2019-01-03T17:23:48.328Z,1041.01
2019-01-03T17:25:48.266Z,1040.99
2019-01-03T17:27:48.262Z,1041.10
2019-01-03T17:29:48.307Z,1041.08
2019-01-03T17:31:48.317Z,1041.07
2019-01-03T17:33:52.733Z,1040.92
2019-01-03T17:35:48.311Z,1040.83
2019-01-03T17:37:48.309Z,1040.84
2019-01-03T17:39:48.279Z,1040.81
2019-01-03T17:41:48.313Z,1040.61
2019-01-03T17:43:48.312Z,1040.59
2019-01-03T17:45:48.270Z,1040.66
2019-01-03T17:47:48.320Z,1040.86
2019-01-03T17:49:48.295Z,1040.84
2019-01-03T17:51:48.281Z,1040.89
2019-01-03T17:53:48.361Z,1040.94
2019-01-03T17:55:49.088Z,1040.97
2019-01-03T17:57:48.263Z,1040.90
2019-01-03T17:59:48.518Z,1040.83
2019-01-03T18:01:48.316Z,1040.83
2019-01-03T18:03:48.303Z,1040.75
2019-01-03T18:05:48.358Z,1040.83
2019-01-03T18:07:48.293Z,1040.81
2019-01-03T18:09:48.310Z,1040.91
2019-01-03T18:11:49.059Z,1040.95
2019-01-03T18:13:48.472Z,1040.95
2019-01-03T18:15:48.307Z,1040.97
2019-01-03T18:17:48.346Z,1041.00
2019-01-03T18:19:48.313Z,1040.91
2019-01-03T18:21:53.549Z,1040.90
2019-01-03T18:23:48.322Z,1040.90
2019-01-03T18:25:48.323Z,1040.98
2019-01-03T18:27:48.343Z,1040.97
2019-01-03T18:29:49.505Z,1041.03
2019-01-03T18:31:48.330Z,1041.00
2019-01-03T18:33:48.319Z,1041.01
2019-01-03T18:35:48.339Z,1041.01
2019-01-03T18:37:48.318Z,1041.08
2019-01-03T18:39:48.338Z,1041.16
2019-01-03T18:41:48.508Z,1041.15
2019-01-03T18:43:48.287Z,1041.07
2019-01-03T18:45:48.291Z,1041.07
2019-01-03T18:47:48.353Z,1041.13
2019-01-03T18:49:48.484Z,1041.13
2019-01-03T18:51:48.336Z,1041.03
2019-01-03T18:53:48.532Z,1041.00
2019-01-03T18:57:48.313Z,1041.11
2019-01-03T18:59:48.350Z,1041.05
2019-01-03T19:01:48.334Z,1041.10
2019-01-03T19:03:48.342Z,1041.11
2019-01-03T19:05:48.343Z,1041.12
2019-01-03T19:07:48.339Z,1041.13
2019-01-03T19:09:48.315Z,1041.11
2019-01-03T19:11:48.386Z,1041.14
2019-01-03T19:13:48.343Z,1041.20
2019-01-03T19:15:51.833Z,1041.17
2019-01-03T19:17:48.356Z,1041.18
2019-01-03T19:19:49.264Z,1041.17
2019-01-03T19:21:48.314Z,1041.15
2019-01-03T19:23:48.445Z,1041.15
2019-01-03T19:25:48.331Z,1041.15
2019-01-03T19:27:48.336Z,1041.17
2019-01-03T19:29:48.352Z,1041.19
2019-01-03T19:31:48.445Z,1041.15
2019-01-03T19:33:48.363Z,1041.13
2019-01-03T19:35:48.376Z,1041.19
2019-01-03T19:37:48.504Z,1041.23
2019-01-03T19:39:48.308Z,1041.22
2019-01-03T19:41:48.359Z,1041.29
2019-01-03T19:43:48.366Z,1041.30
2019-01-03T19:45:50.685Z,1041.16
2019-01-03T19:47:48.368Z,1041.22
2019-01-03T19:49:48.338Z,1041.17
2019-01-03T19:51:48.379Z,1041.15
2019-01-03T19:53:48.365Z,1041.13
2019-01-03T19:55:48.341Z,1041.14
2019-01-03T19:57:48.370Z,1041.13
2019-01-03T19:59:48.548Z,1041.17
2019-01-03T20:01:48.341Z,1041.12
2019-01-03T20:03:48.586Z,1041.19
2019-01-03T20:05:50.294Z,1041.23
2019-01-03T20:07:48.362Z,1041.18
2019-01-03T20:09:48.333Z,1041.20
2019-01-03T20:11:48.371Z,1041.18
2019-01-03T20:13:48.366Z,1041.11
2019-01-03T20:15:48.338Z,1041.16
2019-01-03T20:21:48.340Z,1041.20
2019-01-03T20:23:48.442Z,1041.24
2019-01-03T20:27:48.382Z,1041.23
2019-01-03T20:29:48.431Z,1041.19
2019-01-03T20:33:50.459Z,1041.18
2019-01-03T20:35:48.364Z,1041.19
2019-01-03T20:39:53.845Z,1041.22
2019-01-03T20:41:48.389Z,1041.27
2019-01-03T20:45:48.605Z,1041.20
2019-01-03T20:47:48.408Z,1041.30
2019-01-03T20:51:48.377Z,1041.25
2019-01-03T20:53:48.349Z,1041.22
2019-01-03T20:57:48.365Z,1041.26
2019-01-03T20:59:48.360Z,1041.24
2019-01-03T21:03:48.574Z,1041.20
2019-01-03T21:05:53.008Z,1041.22
2019-01-03T21:09:48.371Z,1041.20
2019-01-03T21:11:48.410Z,1041.25
2019-01-03T21:15:53.624Z,1041.18
2019-01-03T21:17:48.626Z,1041.15
2019-01-03T21:21:48.432Z,1041.15
2019-01-03T21:23:48.394Z,1041.12
2019-01-03T21:27:48.395Z,1041.08
2019-01-03T21:29:49.106Z,1041.11
2019-01-03T21:33:49.924Z,1041.16
2019-01-03T21:35:48.645Z,1041.12
2019-01-03T21:39:48.402Z,1041.11
2019-01-03T21:41:48.423Z,1041.06
2019-01-03T21:45:48.434Z,1041.06
2019-01-03T21:47:48.416Z,1041.07
2019-01-03T21:51:48.393Z,1041.03
2019-01-03T21:53:48.459Z,1041.08
2019-01-03T21:57:48.414Z,1041.15
2019-01-03T21:59:48.446Z,1041.14
2019-01-03T22:03:48.434Z,1041.20
2019-01-03T22:05:48.449Z,1041.13
2019-01-03T22:09:48.441Z,1041.07
2019-01-03T22:11:48.424Z,1041.08
2019-01-03T22:15:48.429Z,1040.98
2019-01-03T22:17:48.428Z,1040.96
2019-01-03T22:21:48.791Z,1040.87
2019-01-03T22:23:48.417Z,1040.91
2019-01-03T22:27:48.454Z,1040.87
2019-01-03T22:29:48.417Z,1040.88
2019-01-03T22:33:48.455Z,1040.81
2019-01-03T22:35:48.424Z,1040.79
2019-01-03T22:39:48.427Z,1040.83
2019-01-03T22:41:48.536Z,1040.83
2019-01-03T22:45:48.415Z,1040.79
2019-01-03T22:47:48.438Z,1040.77
2019-01-03T22:53:48.432Z,1040.78
2019-01-03T22:55:48.476Z,1040.79
2019-01-03T22:59:48.443Z,1040.79
2019-01-03T23:01:48.437Z,1040.76
2019-01-03T23:05:48.517Z,1040.80
2019-01-03T23:07:48.448Z,1040.80
2019-01-03T23:11:48.456Z,1040.86
2019-01-03T23:13:48.498Z,1040.86
2019-01-03T23:17:48.452Z,1040.89
2019-01-03T23:19:48.455Z,1040.91
2019-01-03T23:23:48.475Z,1040.84
2019-01-03T23:25:48.468Z,1040.85
2019-01-03T23:29:48.689Z,1040.94
2019-01-03T23:31:48.808Z,1040.90
2019-01-03T23:35:48.516Z,1040.84
2019-01-03T23:37:48.493Z,1040.79
2019-01-03T23:41:48.489Z,1040.83
2019-01-03T23:43:48.466Z,1040.80
2019-01-03T23:47:49.550Z,1040.70
2019-01-03T23:49:48.514Z,1040.64
2019-01-03T23:53:48.454Z,1040.70
2019-01-03T23:55:48.484Z,1040.69
